sensor_id;sensor_type;location;lat;lon;timestamp;temperature;humidity
4461;DHT22;2243;48.812;9.232;2023-04-24T00:02:25;12.90;99.90
4461;DHT22;2243;48.812;9.232;2023-04-24T00:04:57;13.00;99.90
4461;DHT22;2243;48.812;9.232;2023-04-24T00:07:33;12.90;99.90
4461;DHT22;2243;48.812;9.232;2023-04-24T00:10:05;13.00;99.90
4461;DHT22;2243;48.812;9.232;2023-04-24T00:12:37;12.90;99.90
4461;DHT22;2243;48.812;9.232;2023-04-24T00:15:09;12.90;99.90
4461;DHT22;2243;48.812;9.232;2023-04-24T00:17:40;12.90;99.90
4461;DHT22;2243;48.812;9.232;2023-04-24T00:20:11;12.90;99.90
4461;DHT22;2243;48.812;9.232;2023-04-24T00:22:42;12.90;99.90
4461;DHT22;2243;48.812;9.232;2023-04-24T00:25:13;12.90;99.90
4461;DHT22;2243;48.812;9.232;2023-04-24T00:27:44;12.90;99.90
4461;DHT22;2243;48.812;9.232;2023-04-24T00:30:15;12.90;99.90
4461;DHT22;2243;48.812;9.232;2023-04-24T00:32:46;12.90;99.90
4461;DHT22;2243;48.812;9.232;2023-04-24T00:35:17;12.90;99.90
4461;DHT22;2243;48.812;9.232;2023-04-24T00:37:50;12.90;99.90
4461;DHT22;2243;48.812;9.232;2023-04-24T00:40:21;12.90;99.90
4461;DHT22;2243;48.812;9.232;2023-04-24T00:42:52;12.90;99.90
4461;DHT22;2243;48.812;9.232;2023-04-24T00:45:23;12.80;99.90
4461;DHT22;2243;48.812;9.232;2023-04-24T00:47:54;12.90;99.90
4461;DHT22;2243;48.812;9.232;2023-04-24T00:50:25;12.90;99.90
4461;DHT22;2243;48.812;9.232;2023-04-24T00:52:57;12.90;99.90
4461;DHT22;2243;48.812;9.232;2023-04-24T00:55:28;12.90;99.90
4461;DHT22;2243;48.812;9.232;2023-04-24T00:57:59;13.00;99.90
4461;DHT22;2243;48.812;9.232;2023-04-24T01:00:30;12.90;99.90
4461;DHT22;2243;48.812;9.232;2023-04-24T01:03:04;12.90;99.90
4461;DHT22;2243;48.812;9.232;2023-04-24T01:05:36;12.90;99.90
4461;DHT22;2243;48.812;9.232;2023-04-24T01:08:07;13.00;99.90
4461;DHT22;2243;48.812;9.232;2023-04-24T01:10:40;13.00;99.90
4461;DHT22;2243;48.812;9.232;2023-04-24T01:13:11;13.00;99.90
4461;DHT22;2243;48.812;9.232;2023-04-24T01:15:42;13.00;99.90
4461;DHT22;2243;48.812;9.232;2023-04-24T01:18:14;13.10;99.90
4461;DHT22;2243;48.812;9.232;2023-04-24T01:20:46;13.10;99.90
4461;DHT22;2243;48.812;9.232;2023-04-24T01:23:17;13.10;99.90
4461;DHT22;2243;48.812;9.232;2023-04-24T01:25:49;13.10;99.90
4461;DHT22;2243;48.812;9.232;2023-04-24T01:28:20;13.10;99.90
4461;DHT22;2243;48.812;9.232;2023-04-24T01:30:52;13.10;99.90
4461;DHT22;2243;48.812;9.232;2023-04-24T01:33:24;13.10;99.90
4461;DHT22;2243;48.812;9.232;2023-04-24T01:35:55;13.10;99.90
4461;DHT22;2243;48.812;9.232;2023-04-24T01:38:26;13.10;99.90
4461;DHT22;2243;48.812;9.232;2023-04-24T01:40:57;13.10;99.90
4461;DHT22;2243;48.812;9.232;2023-04-24T01:43:28;13.10;99.90
4461;DHT22;2243;48.812;9.232;2023-04-24T01:45:59;13.10;99.90
4461;DHT22;2243;48.812;9.232;2023-04-24T01:48:31;13.10;99.90
4461;DHT22;2243;48.812;9.232;2023-04-24T01:51:02;13.10;99.90
4461;DHT22;2243;48.812;9.232;2023-04-24T01:53:33;13.10;99.90
4461;DHT22;2243;48.812;9.232;2023-04-24T01:56:04;13.00;99.90
4461;DHT22;2243;48.812;9.232;2023-04-24T01:58:36;13.00;99.90
4461;DHT22;2243;48.812;9.232;2023-04-24T02:01:07;13.00;99.90
4461;DHT22;2243;48.812;9.232;2023-04-24T02:03:38;13.00;99.90
4461;DHT22;2243;48.812;9.232;2023-04-24T02:06:09;12.90;99.90
4461;DHT22;2243;48.812;9.232;2023-04-24T02:08:41;12.90;99.90
4461;DHT22;2243;48.812;9.232;2023-04-24T02:11:12;13.00;99.90
4461;DHT22;2243;48.812;9.232;2023-04-24T02:13:43;13.00;99.90
4461;DHT22;2243;48.812;9.232;2023-04-24T02:16:14;12.90;99.90
4461;DHT22;2243;48.812;9.232;2023-04-24T02:18:45;13.00;99.90
4461;DHT22;2243;48.812;9.232;2023-04-24T02:21:16;13.00;99.90
4461;DHT22;2243;48.812;9.232;2023-04-24T02:23:47;12.90;99.90
4461;DHT22;2243;48.812;9.232;2023-04-24T02:26:18;12.80;99.90
4461;DHT22;2243;48.812;9.232;2023-04-24T02:28:49;12.90;99.90
4461;DHT22;2243;48.812;9.232;2023-04-24T02:31:20;12.80;99.90
4461;DHT22;2243;48.812;9.232;2023-04-24T02:33:51;12.90;99.90
4461;DHT22;2243;48.812;9.232;2023-04-24T02:36:22;12.90;99.90
4461;DHT22;2243;48.812;9.232;2023-04-24T02:38:53;12.90;99.90
4461;DHT22;2243;48.812;9.232;2023-04-24T02:41:24;13.00;99.90
4461;DHT22;2243;48.812;9.232;2023-04-24T02:44:01;13.00;99.90
4461;DHT22;2243;48.812;9.232;2023-04-24T02:46:32;13.00;99.90
4461;DHT22;2243;48.812;9.232;2023-04-24T02:49:03;12.90;99.90
4461;DHT22;2243;48.812;9.232;2023-04-24T02:51:34;12.80;99.90
4461;DHT22;2243;48.812;9.232;2023-04-24T02:54:05;12.70;99.90
4461;DHT22;2243;48.812;9.232;2023-04-24T02:56:36;12.40;99.90
4461;DHT22;2243;48.812;9.232;2023-04-24T02:59:07;12.30;99.90
4461;DHT22;2243;48.812;9.232;2023-04-24T03:01:38;12.10;99.90
4461;DHT22;2243;48.812;9.232;2023-04-24T03:04:09;12.00;99.90
4461;DHT22;2243;48.812;9.232;2023-04-24T03:06:41;11.80;99.90
4461;DHT22;2243;48.812;9.232;2023-04-24T03:09:12;11.80;99.90
4461;DHT22;2243;48.812;9.232;2023-04-24T03:11:43;11.70;99.90
4461;DHT22;2243;48.812;9.232;2023-04-24T03:14:14;11.70;99.90
4461;DHT22;2243;48.812;9.232;2023-04-24T03:16:45;11.70;99.90
4461;DHT22;2243;48.812;9.232;2023-04-24T03:19:16;11.70;99.90
4461;DHT22;2243;48.812;9.232;2023-04-24T03:21:47;11.80;99.90
4461;DHT22;2243;48.812;9.232;2023-04-24T03:24:18;11.80;99.90
4461;DHT22;2243;48.812;9.232;2023-04-24T03:26:51;11.80;99.90
4461;DHT22;2243;48.812;9.232;2023-04-24T03:29:22;11.80;99.90
4461;DHT22;2243;48.812;9.232;2023-04-24T03:31:53;11.80;99.90
4461;DHT22;2243;48.812;9.232;2023-04-24T03:34:24;11.80;99.90
4461;DHT22;2243;48.812;9.232;2023-04-24T03:36:55;11.80;99.90
4461;DHT22;2243;48.812;9.232;2023-04-24T03:39:26;11.90;99.90
4461;DHT22;2243;48.812;9.232;2023-04-24T03:41:57;11.80;99.90
4461;DHT22;2243;48.812;9.232;2023-04-24T03:44:28;11.80;99.90
4461;DHT22;2243;48.812;9.232;2023-04-24T03:46:59;11.80;99.90
4461;DHT22;2243;48.812;9.232;2023-04-24T03:49:30;11.80;99.90
4461;DHT22;2243;48.812;9.232;2023-04-24T03:52:01;11.80;99.90
4461;DHT22;2243;48.812;9.232;2023-04-24T03:54:32;11.80;99.90
4461;DHT22;2243;48.812;9.232;2023-04-24T03:57:03;11.80;99.90
4461;DHT22;2243;48.812;9.232;2023-04-24T03:59:35;11.80;99.90
4461;DHT22;2243;48.812;9.232;2023-04-24T04:02:06;11.70;99.90
4461;DHT22;2243;48.812;9.232;2023-04-24T04:04:37;11.80;99.90
4461;DHT22;2243;48.812;9.232;2023-04-24T04:07:09;11.80;99.90
4461;DHT22;2243;48.812;9.232;2023-04-24T04:09:40;11.90;99.90
4461;DHT22;2243;48.812;9.232;2023-04-24T04:12:11;11.90;99.90
4461;DHT22;2243;48.812;9.232;2023-04-24T04:14:43;12.00;99.90
4461;DHT22;2243;48.812;9.232;2023-04-24T04:17:14;11.90;99.90
4461;DHT22;2243;48.812;9.232;2023-04-24T04:19:45;11.90;99.90
4461;DHT22;2243;48.812;9.232;2023-04-24T04:22:16;12.00;99.90
4461;DHT22;2243;48.812;9.232;2023-04-24T04:24:47;12.00;99.90
4461;DHT22;2243;48.812;9.232;2023-04-24T04:27:18;12.10;99.90
4461;DHT22;2243;48.812;9.232;2023-04-24T04:29:49;12.10;99.90
4461;DHT22;2243;48.812;9.232;2023-04-24T04:32:20;12.10;99.90
4461;DHT22;2243;48.812;9.232;2023-04-24T04:34:52;12.00;99.90
4461;DHT22;2243;48.812;9.232;2023-04-24T04:37:24;11.80;99.90
4461;DHT22;2243;48.812;9.232;2023-04-24T04:39:55;11.80;99.90
4461;DHT22;2243;48.812;9.232;2023-04-24T04:42:28;11.70;99.90
4461;DHT22;2243;48.812;9.232;2023-04-24T04:45:02;11.70;99.90
4461;DHT22;2243;48.812;9.232;2023-04-24T04:47:33;11.70;99.90
4461;DHT22;2243;48.812;9.232;2023-04-24T04:50:04;11.70;99.90
4461;DHT22;2243;48.812;9.232;2023-04-24T04:52:36;11.70;99.90
4461;DHT22;2243;48.812;9.232;2023-04-24T04:55:07;11.50;99.90
4461;DHT22;2243;48.812;9.232;2023-04-24T04:57:39;11.30;99.90
4461;DHT22;2243;48.812;9.232;2023-04-24T05:00:10;11.10;99.90
4461;DHT22;2243;48.812;9.232;2023-04-24T05:02:42;11.10;99.90
4461;DHT22;2243;48.812;9.232;2023-04-24T05:05:13;11.10;99.90
4461;DHT22;2243;48.812;9.232;2023-04-24T05:07:44;11.10;99.90
4461;DHT22;2243;48.812;9.232;2023-04-24T05:10:15;11.20;99.90
4461;DHT22;2243;48.812;9.232;2023-04-24T05:12:46;11.30;99.90
4461;DHT22;2243;48.812;9.232;2023-04-24T05:15:17;11.20;99.90
4461;DHT22;2243;48.812;9.232;2023-04-24T05:17:48;11.20;99.90
4461;DHT22;2243;48.812;9.232;2023-04-24T05:20:19;11.20;99.90
4461;DHT22;2243;48.812;9.232;2023-04-24T05:22:50;11.20;99.90
4461;DHT22;2243;48.812;9.232;2023-04-24T05:25:21;11.20;99.90
4461;DHT22;2243;48.812;9.232;2023-04-24T05:27:52;11.20;99.90
4461;DHT22;2243;48.812;9.232;2023-04-24T05:30:24;11.20;99.90
4461;DHT22;2243;48.812;9.232;2023-04-24T05:32:55;11.20;99.90
4461;DHT22;2243;48.812;9.232;2023-04-24T05:35:26;11.20;99.90
4461;DHT22;2243;48.812;9.232;2023-04-24T05:37:57;11.20;99.90
4461;DHT22;2243;48.812;9.232;2023-04-24T05:40:27;11.20;99.90
4461;DHT22;2243;48.812;9.232;2023-04-24T05:42:58;11.20;99.90
4461;DHT22;2243;48.812;9.232;2023-04-24T05:45:29;11.30;99.90
4461;DHT22;2243;48.812;9.232;2023-04-24T05:48:00;11.30;99.90
4461;DHT22;2243;48.812;9.232;2023-04-24T05:50:31;11.40;99.90
4461;DHT22;2243;48.812;9.232;2023-04-24T05:53:06;11.40;99.90
4461;DHT22;2243;48.812;9.232;2023-04-24T05:55:37;11.40;99.90
4461;DHT22;2243;48.812;9.232;2023-04-24T05:58:09;11.40;99.90
4461;DHT22;2243;48.812;9.232;2023-04-24T06:00:40;11.30;99.90
4461;DHT22;2243;48.812;9.232;2023-04-24T06:03:13;11.50;99.90
4461;DHT22;2243;48.812;9.232;2023-04-24T06:05:45;11.50;99.90
4461;DHT22;2243;48.812;9.232;2023-04-24T06:08:16;11.50;99.90
4461;DHT22;2243;48.812;9.232;2023-04-24T06:10:47;11.50;99.90
4461;DHT22;2243;48.812;9.232;2023-04-24T06:13:18;11.50;99.90
4461;DHT22;2243;48.812;9.232;2023-04-24T06:15:49;11.50;99.90
4461;DHT22;2243;48.812;9.232;2023-04-24T06:18:20;11.50;99.90
4461;DHT22;2243;48.812;9.232;2023-04-24T06:20:51;11.60;99.90
4461;DHT22;2243;48.812;9.232;2023-04-24T06:23:22;11.60;99.90
4461;DHT22;2243;48.812;9.232;2023-04-24T06:25:53;11.40;99.90
4461;DHT22;2243;48.812;9.232;2023-04-24T06:28:24;11.50;99.90
4461;DHT22;2243;48.812;9.232;2023-04-24T06:30:55;11.60;99.90
4461;DHT22;2243;48.812;9.232;2023-04-24T06:33:26;11.80;99.90
4461;DHT22;2243;48.812;9.232;2023-04-24T06:35:57;11.80;99.90
4461;DHT22;2243;48.812;9.232;2023-04-24T06:38:28;11.80;99.90
4461;DHT22;2243;48.812;9.232;2023-04-24T06:41:00;11.90;99.90
4461;DHT22;2243;48.812;9.232;2023-04-24T06:43:31;11.90;99.90
4461;DHT22;2243;48.812;9.232;2023-04-24T06:46:02;12.00;99.90
4461;DHT22;2243;48.812;9.232;2023-04-24T06:48:34;12.10;99.90
4461;DHT22;2243;48.812;9.232;2023-04-24T06:51:05;12.20;99.90
4461;DHT22;2243;48.812;9.232;2023-04-24T06:53:36;12.30;99.90
4461;DHT22;2243;48.812;9.232;2023-04-24T06:56:07;12.30;99.90
4461;DHT22;2243;48.812;9.232;2023-04-24T06:58:38;12.30;99.90
4461;DHT22;2243;48.812;9.232;2023-04-24T07:01:10;12.30;99.90
4461;DHT22;2243;48.812;9.232;2023-04-24T07:03:41;12.40;99.90
4461;DHT22;2243;48.812;9.232;2023-04-24T07:06:13;12.50;99.90
4461;DHT22;2243;48.812;9.232;2023-04-24T07:08:44;12.50;99.90
4461;DHT22;2243;48.812;9.232;2023-04-24T07:11:15;12.50;99.90
4461;DHT22;2243;48.812;9.232;2023-04-24T07:13:46;12.50;99.90
4461;DHT22;2243;48.812;9.232;2023-04-24T07:16:17;12.60;99.90
4461;DHT22;2243;48.812;9.232;2023-04-24T07:18:48;12.60;99.90
4461;DHT22;2243;48.812;9.232;2023-04-24T07:21:19;12.60;99.90
4461;DHT22;2243;48.812;9.232;2023-04-24T07:23:50;12.60;99.90
4461;DHT22;2243;48.812;9.232;2023-04-24T07:26:20;12.70;99.90
4461;DHT22;2243;48.812;9.232;2023-04-24T07:28:51;12.70;99.90
4461;DHT22;2243;48.812;9.232;2023-04-24T07:31:23;12.70;99.90
4461;DHT22;2243;48.812;9.232;2023-04-24T07:33:54;12.60;99.90
4461;DHT22;2243;48.812;9.232;2023-04-24T07:36:25;12.50;99.90
4461;DHT22;2243;48.812;9.232;2023-04-24T07:38:56;12.40;99.90
4461;DHT22;2243;48.812;9.232;2023-04-24T07:41:27;12.40;99.90
4461;DHT22;2243;48.812;9.232;2023-04-24T07:43:58;12.50;99.90
4461;DHT22;2243;48.812;9.232;2023-04-24T07:46:30;12.50;99.90
4461;DHT22;2243;48.812;9.232;2023-04-24T07:49:01;12.50;99.90
4461;DHT22;2243;48.812;9.232;2023-04-24T07:51:43;12.50;99.90
4461;DHT22;2243;48.812;9.232;2023-04-24T07:54:14;12.60;99.90
4461;DHT22;2243;48.812;9.232;2023-04-24T07:56:45;12.70;99.90
4461;DHT22;2243;48.812;9.232;2023-04-24T07:59:16;12.70;99.90
4461;DHT22;2243;48.812;9.232;2023-04-24T08:01:47;12.70;99.90
4461;DHT22;2243;48.812;9.232;2023-04-24T08:04:18;12.70;99.90
4461;DHT22;2243;48.812;9.232;2023-04-24T08:06:49;12.60;99.90
4461;DHT22;2243;48.812;9.232;2023-04-24T08:09:20;12.70;99.90
4461;DHT22;2243;48.812;9.232;2023-04-24T08:11:51;12.70;99.50
4461;DHT22;2243;48.812;9.232;2023-04-24T08:14:22;12.70;99.50
4461;DHT22;2243;48.812;9.232;2023-04-24T08:16:56;12.60;99.60
4461;DHT22;2243;48.812;9.232;2023-04-24T08:19:27;12.50;99.70
4461;DHT22;2243;48.812;9.232;2023-04-24T08:21:58;12.50;99.70
4461;DHT22;2243;48.812;9.232;2023-04-24T08:24:29;12.50;99.60
4461;DHT22;2243;48.812;9.232;2023-04-24T08:27:00;12.50;99.90
4461;DHT22;2243;48.812;9.232;2023-04-24T08:29:32;12.60;99.80
4461;DHT22;2243;48.812;9.232;2023-04-24T08:32:03;12.70;99.60
4461;DHT22;2243;48.812;9.232;2023-04-24T08:34:34;12.80;99.90
4461;DHT22;2243;48.812;9.232;2023-04-24T08:37:05;13.00;99.50
4461;DHT22;2243;48.812;9.232;2023-04-24T08:39:36;13.00;98.80
4461;DHT22;2243;48.812;9.232;2023-04-24T08:42:08;12.90;98.60
4461;DHT22;2243;48.812;9.232;2023-04-24T08:44:40;12.90;98.60
4461;DHT22;2243;48.812;9.232;2023-04-24T08:47:12;13.00;98.80
4461;DHT22;2243;48.812;9.232;2023-04-24T08:49:48;13.00;98.70
4461;DHT22;2243;48.812;9.232;2023-04-24T08:52:20;12.90;98.60
4461;DHT22;2243;48.812;9.232;2023-04-24T08:54:53;12.90;99.10
4461;DHT22;2243;48.812;9.232;2023-04-24T08:57:26;12.80;98.50
4461;DHT22;2243;48.812;9.232;2023-04-24T08:59:58;12.70;98.70
4461;DHT22;2243;48.812;9.232;2023-04-24T09:02:29;12.70;98.90
4461;DHT22;2243;48.812;9.232;2023-04-24T09:05:02;12.70;99.10
4461;DHT22;2243;48.812;9.232;2023-04-24T09:07:35;12.80;99.40
4461;DHT22;2243;48.812;9.232;2023-04-24T09:10:07;12.80;99.80
4461;DHT22;2243;48.812;9.232;2023-04-24T09:12:39;12.70;99.90
4461;DHT22;2243;48.812;9.232;2023-04-24T09:15:11;12.70;99.80
4461;DHT22;2243;48.812;9.232;2023-04-24T09:17:43;12.60;99.70
4461;DHT22;2243;48.812;9.232;2023-04-24T09:20:14;12.50;99.90
4461;DHT22;2243;48.812;9.232;2023-04-24T09:22:45;12.40;99.90
4461;DHT22;2243;48.812;9.232;2023-04-24T09:25:16;12.30;99.90
4461;DHT22;2243;48.812;9.232;2023-04-24T09:27:47;12.20;99.90
4461;DHT22;2243;48.812;9.232;2023-04-24T09:30:21;12.10;99.90
4461;DHT22;2243;48.812;9.232;2023-04-24T09:33:12;11.90;99.90
4461;DHT22;2243;48.812;9.232;2023-04-24T09:35:50;11.40;99.90
4461;DHT22;2243;48.812;9.232;2023-04-24T09:38:38;11.00;99.90
4461;DHT22;2243;48.812;9.232;2023-04-24T09:41:13;10.60;99.90
4461;DHT22;2243;48.812;9.232;2023-04-24T09:43:44;10.60;99.90
4461;DHT22;2243;48.812;9.232;2023-04-24T09:46:18;10.60;99.90
4461;DHT22;2243;48.812;9.232;2023-04-24T09:48:49;10.70;99.90
4461;DHT22;2243;48.812;9.232;2023-04-24T09:51:35;10.80;99.90
4461;DHT22;2243;48.812;9.232;2023-04-24T09:54:15;11.00;99.90
4461;DHT22;2243;48.812;9.232;2023-04-24T09:56:49;11.30;99.90
4461;DHT22;2243;48.812;9.232;2023-04-24T09:59:22;11.50;99.90
4461;DHT22;2243;48.812;9.232;2023-04-24T10:01:53;11.70;99.90
4461;DHT22;2243;48.812;9.232;2023-04-24T10:04:26;11.80;99.90
4461;DHT22;2243;48.812;9.232;2023-04-24T10:06:58;11.90;99.90
4461;DHT22;2243;48.812;9.232;2023-04-24T10:09:31;12.00;99.90
4461;DHT22;2243;48.812;9.232;2023-04-24T10:12:03;12.00;99.90
4461;DHT22;2243;48.812;9.232;2023-04-24T10:14:34;12.10;99.90
4461;DHT22;2243;48.812;9.232;2023-04-24T10:17:06;12.20;99.90
4461;DHT22;2243;48.812;9.232;2023-04-24T10:19:37;12.30;99.90
4461;DHT22;2243;48.812;9.232;2023-04-24T10:22:10;12.40;99.20
4461;DHT22;2243;48.812;9.232;2023-04-24T10:24:41;12.40;99.30
4461;DHT22;2243;48.812;9.232;2023-04-24T10:27:14;12.50;98.60
4461;DHT22;2243;48.812;9.232;2023-04-24T10:29:47;12.50;97.80
4461;DHT22;2243;48.812;9.232;2023-04-24T10:32:19;12.70;97.40
4461;DHT22;2243;48.812;9.232;2023-04-24T10:34:51;12.80;97.70
4461;DHT22;2243;48.812;9.232;2023-04-24T10:37:23;13.00;97.80
4461;DHT22;2243;48.812;9.232;2023-04-24T10:39:55;13.10;96.60
4461;DHT22;2243;48.812;9.232;2023-04-24T10:42:27;13.10;96.20
4461;DHT22;2243;48.812;9.232;2023-04-24T10:44:58;12.90;96.40
4461;DHT22;2243;48.812;9.232;2023-04-24T10:47:41;12.90;96.70
4461;DHT22;2243;48.812;9.232;2023-04-24T10:50:13;12.90;96.40
4461;DHT22;2243;48.812;9.232;2023-04-24T10:52:48;12.80;96.40
4461;DHT22;2243;48.812;9.232;2023-04-24T10:55:48;12.80;96.30
4461;DHT22;2243;48.812;9.232;2023-04-24T10:58:35;12.70;96.80
4461;DHT22;2243;48.812;9.232;2023-04-24T11:01:08;12.70;97.00
4461;DHT22;2243;48.812;9.232;2023-04-24T11:03:50;12.70;96.30
4461;DHT22;2243;48.812;9.232;2023-04-24T11:06:33;12.70;96.40
4461;DHT22;2243;48.812;9.232;2023-04-24T11:09:08;12.60;96.50
4461;DHT22;2243;48.812;9.232;2023-04-24T11:11:46;12.60;96.60
4461;DHT22;2243;48.812;9.232;2023-04-24T11:14:17;12.50;96.80
4461;DHT22;2243;48.812;9.232;2023-04-24T11:16:52;12.50;97.10
4461;DHT22;2243;48.812;9.232;2023-04-24T11:19:27;12.40;97.30
4461;DHT22;2243;48.812;9.232;2023-04-24T11:22:01;12.40;97.70
4461;DHT22;2243;48.812;9.232;2023-04-24T11:27:19;12.50;97.40
4461;DHT22;2243;48.812;9.232;2023-04-24T11:35:13;12.80;96.80
4461;DHT22;2243;48.812;9.232;2023-04-24T11:37:48;12.80;96.50
4461;DHT22;2243;48.812;9.232;2023-04-24T11:40:23;12.90;96.30
4461;DHT22;2243;48.812;9.232;2023-04-24T11:42:56;13.00;96.20
4461;DHT22;2243;48.812;9.232;2023-04-24T11:45:31;13.00;96.10
4461;DHT22;2243;48.812;9.232;2023-04-24T11:48:03;13.10;96.40
4461;DHT22;2243;48.812;9.232;2023-04-24T11:50:34;13.10;96.20
4461;DHT22;2243;48.812;9.232;2023-04-24T11:53:05;13.10;96.40
4461;DHT22;2243;48.812;9.232;2023-04-24T11:55:36;12.90;96.60
4461;DHT22;2243;48.812;9.232;2023-04-24T11:58:08;12.80;97.10
4461;DHT22;2243;48.812;9.232;2023-04-24T12:00:39;12.70;99.90
4461;DHT22;2243;48.812;9.232;2023-04-24T12:03:11;12.50;99.90
4461;DHT22;2243;48.812;9.232;2023-04-24T12:05:43;12.50;99.90
4461;DHT22;2243;48.812;9.232;2023-04-24T12:08:31;12.50;99.90
4461;DHT22;2243;48.812;9.232;2023-04-24T12:11:04;12.80;99.90
4461;DHT22;2243;48.812;9.232;2023-04-24T12:13:37;13.00;98.70
4461;DHT22;2243;48.812;9.232;2023-04-24T12:16:09;13.00;98.10
4461;DHT22;2243;48.812;9.232;2023-04-24T12:18:44;13.10;98.00
4461;DHT22;2243;48.812;9.232;2023-04-24T12:21:21;13.10;97.10
4461;DHT22;2243;48.812;9.232;2023-04-24T12:23:54;13.00;97.40
4461;DHT22;2243;48.812;9.232;2023-04-24T12:26:27;13.00;97.70
4461;DHT22;2243;48.812;9.232;2023-04-24T12:29:01;13.00;97.70
4461;DHT22;2243;48.812;9.232;2023-04-24T12:31:34;13.00;97.70
4461;DHT22;2243;48.812;9.232;2023-04-24T12:34:20;13.00;96.90
4461;DHT22;2243;48.812;9.232;2023-04-24T12:36:52;12.90;97.40
4461;DHT22;2243;48.812;9.232;2023-04-24T12:39:23;12.90;97.00
4461;DHT22;2243;48.812;9.232;2023-04-24T12:41:57;12.90;97.10
4461;DHT22;2243;48.812;9.232;2023-04-24T12:44:35;12.90;97.00
4461;DHT22;2243;48.812;9.232;2023-04-24T12:47:07;12.80;97.00
4461;DHT22;2243;48.812;9.232;2023-04-24T12:49:39;12.70;97.20
4461;DHT22;2243;48.812;9.232;2023-04-24T12:52:10;12.70;97.40
4461;DHT22;2243;48.812;9.232;2023-04-24T12:54:41;12.80;97.20
4461;DHT22;2243;48.812;9.232;2023-04-24T12:57:12;12.80;96.90
4461;DHT22;2243;48.812;9.232;2023-04-24T12:59:43;12.80;96.70
4461;DHT22;2243;48.812;9.232;2023-04-24T13:02:14;12.80;97.10
4461;DHT22;2243;48.812;9.232;2023-04-24T13:04:48;12.80;97.40
4461;DHT22;2243;48.812;9.232;2023-04-24T13:07:20;12.80;99.20
4461;DHT22;2243;48.812;9.232;2023-04-24T13:09:52;12.50;99.90
4461;DHT22;2243;48.812;9.232;2023-04-24T13:12:24;11.90;99.90
4461;DHT22;2243;48.812;9.232;2023-04-24T13:14:57;11.40;99.90
4461;DHT22;2243;48.812;9.232;2023-04-24T13:17:29;11.10;99.90
4461;DHT22;2243;48.812;9.232;2023-04-24T13:20:00;11.00;99.90
4461;DHT22;2243;48.812;9.232;2023-04-24T13:22:31;11.00;99.90
4461;DHT22;2243;48.812;9.232;2023-04-24T13:25:02;11.20;99.90
4461;DHT22;2243;48.812;9.232;2023-04-24T13:27:34;11.30;99.90
4461;DHT22;2243;48.812;9.232;2023-04-24T13:30:06;11.60;99.90
4461;DHT22;2243;48.812;9.232;2023-04-24T13:32:38;11.70;99.90
4461;DHT22;2243;48.812;9.232;2023-04-24T13:35:09;11.90;99.90
4461;DHT22;2243;48.812;9.232;2023-04-24T13:37:40;12.00;99.90
4461;DHT22;2243;48.812;9.232;2023-04-24T13:40:11;12.20;99.90
4461;DHT22;2243;48.812;9.232;2023-04-24T13:42:42;12.30;99.90
4461;DHT22;2243;48.812;9.232;2023-04-24T13:45:13;12.50;99.90
4461;DHT22;2243;48.812;9.232;2023-04-24T13:47:54;12.60;99.90
4461;DHT22;2243;48.812;9.232;2023-04-24T13:50:27;12.60;99.90
4461;DHT22;2243;48.812;9.232;2023-04-24T13:52:58;12.60;99.90
4461;DHT22;2243;48.812;9.232;2023-04-24T13:55:32;12.60;99.90
4461;DHT22;2243;48.812;9.232;2023-04-24T13:58:03;12.50;99.90
4461;DHT22;2243;48.812;9.232;2023-04-24T14:00:34;12.40;99.90
4461;DHT22;2243;48.812;9.232;2023-04-24T14:03:05;12.10;99.90
4461;DHT22;2243;48.812;9.232;2023-04-24T14:05:36;11.70;99.90
4461;DHT22;2243;48.812;9.232;2023-04-24T14:08:08;11.70;99.90
4461;DHT22;2243;48.812;9.232;2023-04-24T14:10:39;11.50;99.90
4461;DHT22;2243;48.812;9.232;2023-04-24T14:13:10;11.60;99.90
4461;DHT22;2243;48.812;9.232;2023-04-24T14:15:41;11.90;99.90
4461;DHT22;2243;48.812;9.232;2023-04-24T14:18:12;12.30;99.90
4461;DHT22;2243;48.812;9.232;2023-04-24T14:20:43;12.60;99.90
4461;DHT22;2243;48.812;9.232;2023-04-24T14:23:14;12.80;99.90
4461;DHT22;2243;48.812;9.232;2023-04-24T14:25:48;13.10;99.90
4461;DHT22;2243;48.812;9.232;2023-04-24T14:28:22;13.20;99.90
4461;DHT22;2243;48.812;9.232;2023-04-24T14:30:53;13.40;99.90
4461;DHT22;2243;48.812;9.232;2023-04-24T14:33:24;13.40;99.90
4461;DHT22;2243;48.812;9.232;2023-04-24T14:35:55;13.60;99.90
4461;DHT22;2243;48.812;9.232;2023-04-24T14:38:26;13.80;99.90
4461;DHT22;2243;48.812;9.232;2023-04-24T14:40:57;14.00;99.90
4461;DHT22;2243;48.812;9.232;2023-04-24T14:43:38;14.20;99.90
4461;DHT22;2243;48.812;9.232;2023-04-24T14:46:08;14.40;99.90
4461;DHT22;2243;48.812;9.232;2023-04-24T14:48:40;14.20;99.90
4461;DHT22;2243;48.812;9.232;2023-04-24T14:51:11;13.80;99.90
4461;DHT22;2243;48.812;9.232;2023-04-24T14:53:42;13.60;99.90
4461;DHT22;2243;48.812;9.232;2023-04-24T14:56:14;13.40;99.90
4461;DHT22;2243;48.812;9.232;2023-04-24T14:58:45;13.30;99.90
4461;DHT22;2243;48.812;9.232;2023-04-24T15:01:16;13.30;99.90
4461;DHT22;2243;48.812;9.232;2023-04-24T15:03:48;13.30;99.90
4461;DHT22;2243;48.812;9.232;2023-04-24T15:06:20;13.50;99.90
4461;DHT22;2243;48.812;9.232;2023-04-24T15:08:51;13.50;99.90
4461;DHT22;2243;48.812;9.232;2023-04-24T15:11:22;13.90;99.80
4461;DHT22;2243;48.812;9.232;2023-04-24T15:13:52;14.10;99.30
4461;DHT22;2243;48.812;9.232;2023-04-24T15:16:24;14.00;99.60
4461;DHT22;2243;48.812;9.232;2023-04-24T15:18:55;13.80;99.70
4461;DHT22;2243;48.812;9.232;2023-04-24T15:21:27;13.60;99.80
4461;DHT22;2243;48.812;9.232;2023-04-24T15:23:58;13.40;99.90
4461;DHT22;2243;48.812;9.232;2023-04-24T15:26:30;13.20;99.90
4461;DHT22;2243;48.812;9.232;2023-04-24T15:29:01;13.10;99.90
4461;DHT22;2243;48.812;9.232;2023-04-24T15:31:32;13.10;99.90
4461;DHT22;2243;48.812;9.232;2023-04-24T15:34:03;13.10;99.90
4461;DHT22;2243;48.812;9.232;2023-04-24T15:36:35;13.00;99.90
4461;DHT22;2243;48.812;9.232;2023-04-24T15:39:05;12.90;99.90
4461;DHT22;2243;48.812;9.232;2023-04-24T15:41:39;12.80;99.90
4461;DHT22;2243;48.812;9.232;2023-04-24T15:44:10;12.30;99.90
4461;DHT22;2243;48.812;9.232;2023-04-24T15:46:41;11.80;99.90
4461;DHT22;2243;48.812;9.232;2023-04-24T15:49:12;11.50;99.90
4461;DHT22;2243;48.812;9.232;2023-04-24T15:51:43;11.30;99.90
4461;DHT22;2243;48.812;9.232;2023-04-24T15:54:14;11.30;99.90
4461;DHT22;2243;48.812;9.232;2023-04-24T15:56:45;11.40;99.90
4461;DHT22;2243;48.812;9.232;2023-04-24T15:59:17;11.60;99.90
4461;DHT22;2243;48.812;9.232;2023-04-24T16:01:52;11.80;99.90
4461;DHT22;2243;48.812;9.232;2023-04-24T16:04:25;12.10;99.90
4461;DHT22;2243;48.812;9.232;2023-04-24T16:06:56;12.20;99.90
4461;DHT22;2243;48.812;9.232;2023-04-24T16:09:28;12.60;99.90
4461;DHT22;2243;48.812;9.232;2023-04-24T16:12:00;13.00;99.90
4461;DHT22;2243;48.812;9.232;2023-04-24T16:14:31;13.10;99.90
4461;DHT22;2243;48.812;9.232;2023-04-24T16:17:03;13.40;99.90
4461;DHT22;2243;48.812;9.232;2023-04-24T16:19:34;13.50;99.90
4461;DHT22;2243;48.812;9.232;2023-04-24T16:22:05;13.50;99.90
4461;DHT22;2243;48.812;9.232;2023-04-24T16:24:36;13.70;99.90
4461;DHT22;2243;48.812;9.232;2023-04-24T16:27:07;13.90;99.90
4461;DHT22;2243;48.812;9.232;2023-04-24T16:29:38;14.10;99.90
4461;DHT22;2243;48.812;9.232;2023-04-24T16:32:09;14.30;99.90
4461;DHT22;2243;48.812;9.232;2023-04-24T16:34:40;14.70;99.90
4461;DHT22;2243;48.812;9.232;2023-04-24T16:37:11;14.70;99.90
4461;DHT22;2243;48.812;9.232;2023-04-24T16:39:42;14.60;99.90
4461;DHT22;2243;48.812;9.232;2023-04-24T16:42:15;14.50;99.90